createdAt,value
2022-08-31T00:00:12.942Z,3.03
2022-08-31T00:02:59.045Z,3.30
2022-08-31T00:05:26.583Z,3.00
2022-08-31T00:07:55.625Z,2.83
2022-08-31T00:10:32.808Z,3.10
2022-08-31T00:13:04.918Z,2.70
2022-08-31T00:15:35.330Z,3.40
2022-08-31T00:18:03.867Z,3.20
2022-08-31T00:20:34.330Z,2.80
2022-08-31T00:23:08.163Z,3.30
2022-08-31T00:25:37.292Z,3.13
2022-08-31T00:28:05.615Z,3.07
2022-08-31T00:30:35.491Z,3.87
2022-08-31T00:33:04.042Z,3.50
2022-08-31T00:35:33.864Z,3.10
2022-08-31T00:38:01.272Z,3.63
2022-08-31T00:40:28.947Z,3.20
2022-08-31T00:42:56.808Z,3.60
2022-08-31T00:45:24.581Z,3.33
2022-08-31T00:47:52.655Z,3.40
2022-08-31T00:50:22.187Z,3.30
2022-08-31T00:53:00.193Z,3.43
2022-08-31T00:55:35.756Z,3.50
2022-08-31T00:58:08.915Z,3.13
2022-08-31T01:00:37.534Z,2.80
2022-08-31T01:03:07.944Z,3.47
2022-08-31T01:05:36.999Z,3.37
2022-08-31T01:08:06.102Z,3.50
2022-08-31T01:10:41.326Z,3.03
2022-08-31T01:13:12.206Z,3.20
2022-08-31T01:15:50.432Z,3.13
2022-08-31T01:18:23.573Z,3.00
2022-08-31T01:21:25.082Z,3.47
2022-08-31T01:23:55.402Z,3.23
2022-08-31T01:26:27.293Z,3.43
2022-08-31T01:29:00.638Z,3.43
2022-08-31T01:31:42.023Z,3.37
2022-08-31T01:34:10.578Z,3.67
2022-08-31T01:36:39.727Z,3.23
2022-08-31T01:39:08.796Z,3.20
2022-08-31T01:41:41.280Z,2.87
2022-08-31T01:44:09.101Z,3.40
2022-08-31T01:46:36.612Z,3.67
2022-08-31T01:49:04.534Z,2.80
2022-08-31T01:51:32.229Z,3.10
2022-08-31T01:53:59.980Z,3.27
2022-08-31T01:56:31.994Z,3.53
2022-08-31T01:59:08.177Z,3.23
2022-08-31T02:01:56.078Z,3.17
2022-08-31T02:04:26.518Z,3.60
2022-08-31T02:06:59.421Z,3.17
2022-08-31T02:09:28.170Z,3.30
2022-08-31T02:11:55.986Z,3.07
2022-08-31T02:14:23.438Z,2.97
2022-08-31T02:16:50.954Z,3.37
2022-08-31T02:19:18.846Z,3.50
2022-08-31T02:21:46.660Z,3.47
2022-08-31T02:24:14.330Z,3.10
2022-08-31T02:26:41.853Z,3.10
2022-08-31T02:29:09.344Z,3.30
2022-08-31T02:31:37.328Z,3.00
2022-08-31T02:34:05.538Z,3.10
2022-08-31T02:36:34.798Z,3.10
2022-08-31T02:39:05.492Z,3.33
2022-08-31T02:41:33.976Z,3.40
2022-08-31T02:44:01.541Z,3.30
2022-08-31T02:46:29.304Z,3.30
2022-08-31T02:49:16.980Z,3.23
2022-08-31T02:51:44.733Z,3.27
2022-08-31T02:54:12.795Z,3.17
2022-08-31T02:56:41.602Z,3.00
2022-08-31T02:59:09.198Z,3.30
2022-08-31T03:01:38.022Z,3.30
2022-08-31T03:04:05.989Z,3.30
2022-08-31T03:06:34.381Z,3.10
2022-08-31T03:09:02.527Z,3.43
2022-08-31T03:11:30.056Z,3.10
2022-08-31T03:13:58.937Z,3.60
2022-08-31T03:16:27.083Z,3.60
2022-08-31T03:18:54.947Z,3.17
2022-08-31T03:21:22.310Z,3.00
2022-08-31T03:23:49.701Z,3.37
2022-08-31T03:26:17.754Z,3.00
2022-08-31T03:28:45.215Z,2.47
2022-08-31T03:31:45.311Z,3.30
2022-08-31T03:34:16.126Z,3.60
2022-08-31T03:36:43.898Z,3.37
2022-08-31T03:39:11.289Z,2.90
2022-08-31T03:41:38.798Z,3.50
2022-08-31T03:44:06.884Z,3.53
2022-08-31T03:46:35.633Z,3.10
2022-08-31T03:49:03.724Z,3.40
2022-08-31T03:51:33.314Z,3.10
2022-08-31T03:54:01.377Z,2.90
2022-08-31T03:56:28.905Z,3.20
2022-08-31T03:58:56.625Z,3.37
2022-08-31T04:02:02.352Z,2.97
2022-08-31T04:04:53.208Z,3.57
2022-08-31T04:07:44.015Z,2.87
2022-08-31T04:10:42.295Z,3.00
2022-08-31T04:13:30.199Z,3.13
2022-08-31T04:16:21.350Z,2.97
2022-08-31T04:18:51.811Z,3.43
2022-08-31T04:21:23.040Z,3.00
2022-08-31T04:23:52.212Z,3.00
2022-08-31T04:26:23.453Z,3.23
2022-08-31T04:28:51.441Z,3.00
2022-08-31T04:31:20.487Z,3.60
2022-08-31T04:33:48.209Z,3.20
2022-08-31T04:36:19.646Z,3.57
2022-08-31T04:38:50.645Z,3.87
2022-08-31T04:41:20.310Z,3.60
2022-08-31T04:43:52.078Z,3.47
2022-08-31T04:46:20.399Z,3.13
2022-08-31T04:48:49.245Z,3.60
2022-08-31T04:51:19.312Z,3.60
2022-08-31T04:53:48.109Z,2.97
2022-08-31T04:56:18.826Z,2.90
2022-08-31T04:58:54.945Z,3.57
2022-08-31T05:01:25.712Z,3.57
2022-08-31T05:04:29.130Z,3.47
2022-08-31T05:06:56.821Z,3.40
2022-08-31T05:09:24.497Z,3.70
2022-08-31T05:11:55.971Z,3.40
2022-08-31T05:14:25.047Z,3.40
2022-08-31T05:17:06.291Z,3.23
2022-08-31T05:19:41.461Z,3.43
2022-08-31T05:22:08.926Z,3.90
2022-08-31T05:24:39.040Z,3.60
2022-08-31T05:27:06.767Z,3.70
2022-08-31T05:29:34.198Z,3.70
2022-08-31T05:32:34.439Z,3.40
2022-08-31T05:35:07.542Z,3.40
2022-08-31T05:37:34.863Z,3.97
2022-08-31T05:40:02.912Z,3.70
2022-08-31T05:42:30.399Z,4.03
2022-08-31T05:44:58.258Z,3.40
2022-08-31T05:47:25.613Z,4.03
2022-08-31T05:49:53.074Z,3.57
2022-08-31T05:52:24.845Z,3.20
2022-08-31T05:54:53.274Z,3.57
2022-08-31T05:57:25.803Z,3.87
2022-08-31T05:59:54.896Z,3.73
2022-08-31T06:02:22.539Z,3.87
2022-08-31T06:04:52.164Z,3.63
2022-08-31T06:07:20.965Z,3.77
2022-08-31T06:09:55.099Z,3.50
2022-08-31T06:12:25.539Z,3.83
2022-08-31T06:14:53.641Z,4.60
2022-08-31T06:17:21.343Z,4.37
2022-08-31T06:19:51.454Z,4.03
2022-08-31T06:22:20.007Z,3.80
2022-08-31T06:24:47.750Z,4.27
2022-08-31T06:27:16.000Z,4.40
2022-08-31T06:29:43.791Z,4.20
2022-08-31T06:32:12.504Z,3.87
2022-08-31T06:34:42.895Z,3.83
2022-08-31T06:37:29.116Z,4.03
2022-08-31T06:40:15.350Z,3.97
2022-08-31T06:43:18.193Z,4.30
2022-08-31T06:45:59.621Z,4.40
2022-08-31T06:48:34.581Z,3.80
2022-08-31T06:51:03.151Z,3.80
2022-08-31T06:53:30.794Z,3.53
2022-08-31T06:56:16.500Z,3.93
2022-08-31T06:59:08.424Z,3.47
2022-08-31T07:01:51.414Z,3.43
2022-08-31T07:04:34.325Z,3.27
2022-08-31T07:07:02.764Z,3.47
2022-08-31T07:09:30.340Z,3.50
2022-08-31T07:11:57.799Z,3.40
2022-08-31T07:14:27.431Z,3.20
2022-08-31T07:16:58.596Z,3.40
2022-08-31T07:19:27.440Z,3.63
2022-08-31T07:21:58.883Z,3.87
2022-08-31T07:24:30.487Z,3.77
2022-08-31T07:27:02.255Z,3.17
2022-08-31T07:29:40.987Z,3.63
2022-08-31T07:32:14.746Z,3.70
2022-08-31T07:34:44.018Z,3.47
2022-08-31T07:37:48.903Z,3.57
2022-08-31T07:40:39.510Z,3.30
2022-08-31T07:43:10.559Z,3.20
2022-08-31T07:45:40.488Z,3.47
2022-08-31T07:48:08.991Z,3.70
2022-08-31T07:51:01.274Z,3.10
2022-08-31T07:53:47.432Z,3.37
2022-08-31T07:56:39.734Z,3.53
2022-08-31T07:59:12.281Z,3.10
2022-08-31T08:01:41.712Z,2.93
2022-08-31T08:04:13.126Z,3.10
2022-08-31T08:07:00.716Z,3.20
2022-08-31T08:09:47.588Z,3.47
2022-08-31T08:12:36.233Z,3.07
2022-08-31T08:15:15.672Z,3.00
2022-08-31T08:17:55.581Z,3.30
2022-08-31T08:20:37.543Z,3.23
2022-08-31T08:23:14.002Z,2.87
2022-08-31T08:26:01.379Z,3.30
2022-08-31T08:28:48.888Z,3.70
2022-08-31T08:31:19.778Z,3.20
2022-08-31T08:33:47.174Z,3.43
2022-08-31T08:36:18.036Z,3.57
2022-08-31T08:38:48.807Z,3.00
2022-08-31T08:41:20.254Z,3.10
2022-08-31T08:43:57.421Z,2.80
2022-08-31T08:46:40.603Z,3.27
2022-08-31T08:49:22.116Z,3.20
2022-08-31T08:52:03.642Z,3.30
2022-08-31T08:54:34.427Z,3.40
2022-08-31T08:57:17.530Z,3.10
2022-08-31T08:59:49.531Z,3.03
2022-08-31T09:02:46.802Z,3.30
2022-08-31T09:05:47.765Z,3.27
2022-08-31T09:08:32.312Z,3.57
2022-08-31T09:11:17.488Z,2.90
2022-08-31T09:14:15.337Z,3.73
2022-08-31T09:17:05.348Z,3.07
2022-08-31T09:19:52.830Z,3.10
2022-08-31T09:22:20.697Z,3.33
2022-08-31T09:24:56.100Z,3.50
2022-08-31T09:27:47.744Z,3.60
2022-08-31T09:30:34.015Z,3.60
2022-08-31T09:33:01.421Z,3.47
2022-08-31T09:35:41.207Z,3.50
2022-08-31T09:38:26.759Z,3.80
2022-08-31T09:40:54.940Z,3.40
2022-08-31T09:43:28.684Z,3.57
2022-08-31T09:46:06.210Z,3.53
2022-08-31T09:48:51.931Z,3.67
2022-08-31T09:51:35.514Z,3.80
2022-08-31T09:54:35.749Z,4.27
2022-08-31T09:57:07.504Z,3.60
2022-08-31T09:59:38.421Z,3.57
2022-08-31T10:02:31.747Z,4.30
2022-08-31T10:05:06.309Z,3.70
2022-08-31T10:07:48.174Z,3.60
2022-08-31T10:10:30.068Z,3.57
2022-08-31T10:13:06.812Z,3.87
2022-08-31T10:15:57.903Z,3.53
2022-08-31T10:18:39.495Z,3.50
2022-08-31T10:21:12.272Z,3.53
2022-08-31T10:23:56.135Z,3.87
2022-08-31T10:26:33.977Z,3.13
2022-08-31T10:29:05.974Z,3.93
2022-08-31T10:31:36.858Z,3.93
2022-08-31T10:34:29.979Z,3.80
2022-08-31T10:37:23.982Z,3.53
2022-08-31T10:39:58.499Z,3.30
2022-08-31T10:42:35.917Z,3.17
2022-08-31T10:45:19.093Z,3.50
2022-08-31T10:47:50.026Z,3.20
2022-08-31T10:50:47.902Z,3.43
2022-08-31T10:53:43.897Z,5.67
2022-08-31T10:56:16.751Z,4.03
2022-08-31T10:58:44.061Z,3.80
2022-08-31T11:01:20.468Z,3.70
2022-08-31T11:04:03.334Z,3.30
2022-08-31T11:06:41.602Z,3.57
2022-08-31T11:09:34.816Z,3.63
2022-08-31T11:12:11.731Z,2.90
2022-08-31T11:14:58.612Z,3.47
2022-08-31T11:17:58.968Z,3.37
2022-08-31T11:20:29.556Z,3.03
2022-08-31T11:23:30.064Z,3.40
2022-08-31T11:26:16.358Z,3.17
2022-08-31T11:29:35.099Z,3.70
2022-08-31T11:32:27.702Z,4.00
2022-08-31T11:34:58.133Z,3.40
2022-08-31T11:37:55.480Z,3.43
2022-08-31T11:40:41.646Z,3.57
2022-08-31T11:43:35.856Z,3.40
2022-08-31T11:46:27.902Z,3.77
2022-08-31T11:48:55.524Z,3.33
2022-08-31T11:51:45.057Z,3.43
2022-08-31T11:54:26.923Z,3.37
2022-08-31T11:56:56.625Z,3.20
2022-08-31T11:59:30.810Z,3.43
2022-08-31T12:02:20.565Z,3.30
2022-08-31T12:05:00.162Z,3.23
2022-08-31T12:07:30.093Z,3.67
2022-08-31T12:10:16.786Z,3.07
2022-08-31T12:13:19.495Z,3.10
2022-08-31T12:16:06.738Z,2.93
2022-08-31T12:18:40.060Z,3.10
2022-08-31T12:21:57.537Z,3.70
2022-08-31T12:24:49.231Z,3.67
2022-08-31T12:27:42.226Z,2.80
2022-08-31T12:30:23.331Z,3.23
2022-08-31T12:33:12.551Z,3.43
2022-08-31T12:35:40.182Z,3.13
2022-08-31T12:38:16.043Z,3.07
2022-08-31T12:40:47.248Z,3.13
2022-08-31T12:43:44.517Z,3.00
2022-08-31T12:46:20.838Z,3.30
2022-08-31T12:49:01.932Z,3.20
2022-08-31T12:51:38.570Z,2.80
2022-08-31T12:54:27.068Z,3.10
2022-08-31T12:57:11.805Z,3.30
2022-08-31T13:00:02.371Z,3.27
2022-08-31T13:02:32.990Z,3.00
2022-08-31T13:05:00.684Z,2.93
2022-08-31T13:07:33.981Z,3.20
2022-08-31T13:10:02.898Z,3.37
2022-08-31T13:12:30.308Z,3.33
2022-08-31T13:14:57.738Z,3.13
2022-08-31T13:17:25.759Z,3.00
2022-08-31T13:19:56.151Z,3.17
2022-08-31T13:22:34.909Z,3.40
2022-08-31T13:25:31.698Z,2.67
2022-08-31T13:27:59.456Z,2.83
2022-08-31T13:30:26.879Z,3.17
2022-08-31T13:32:55.032Z,3.03
2022-08-31T13:35:28.161Z,3.50
2022-08-31T13:38:05.737Z,3.13
2022-08-31T13:40:37.318Z,2.60
2022-08-31T13:43:07.882Z,2.93
2022-08-31T13:45:58.576Z,3.03
2022-08-31T13:48:40.702Z,2.80
2022-08-31T13:51:20.521Z,3.30
2022-08-31T13:53:54.484Z,3.27
2022-08-31T13:56:46.666Z,2.80
2022-08-31T13:59:30.974Z,3.20
2022-08-31T14:02:07.522Z,3.13
2022-08-31T14:04:43.999Z,2.87
2022-08-31T14:07:23.799Z,3.10
2022-08-31T14:09:56.797Z,3.00
2022-08-31T14:12:45.882Z,2.93
2022-08-31T14:16:13.319Z,2.70
2022-08-31T14:18:46.934Z,2.90
2022-08-31T14:21:21.529Z,2.80
2022-08-31T14:24:01.205Z,3.00
2022-08-31T14:26:49.265Z,3.00
2022-08-31T14:29:17.159Z,2.80
2022-08-31T14:31:54.923Z,3.40
2022-08-31T14:34:25.867Z,3.13
2022-08-31T14:37:08.548Z,3.20
2022-08-31T14:39:41.804Z,3.20
2022-08-31T14:42:25.331Z,3.10
2022-08-31T14:45:18.864Z,3.10
2022-08-31T14:47:50.798Z,2.93
2022-08-31T14:50:25.368Z,2.87
2022-08-31T14:52:55.151Z,3.00
2022-08-31T14:55:24.824Z,3.40
2022-08-31T14:57:59.439Z,3.40
2022-08-31T15:00:31.601Z,3.07
2022-08-31T15:03:01.155Z,3.07
2022-08-31T15:05:28.883Z,3.50
2022-08-31T15:07:56.827Z,3.33
2022-08-31T15:10:25.760Z,3.00
2022-08-31T15:12:54.470Z,3.27
2022-08-31T15:15:22.102Z,3.57
2022-08-31T15:17:51.648Z,3.33
2022-08-31T15:20:20.842Z,3.10
2022-08-31T15:22:48.599Z,2.90
2022-08-31T15:25:18.709Z,2.77
2022-08-31T15:27:46.516Z,3.23
2022-08-31T15:30:18.605Z,3.20
2022-08-31T15:32:47.872Z,3.43
2022-08-31T15:35:19.582Z,2.80
2022-08-31T15:37:53.088Z,2.73
2022-08-31T15:40:21.500Z,2.80
2022-08-31T15:42:50.868Z,3.90
2022-08-31T15:45:18.451Z,3.50
2022-08-31T15:48:04.917Z,3.17
2022-08-31T15:50:35.800Z,2.60
2022-08-31T15:53:09.534Z,2.80
2022-08-31T15:55:41.227Z,2.80
2022-08-31T15:58:09.820Z,3.10
2022-08-31T16:00:41.568Z,3.10
2022-08-31T16:03:09.170Z,3.00
2022-08-31T16:05:39.300Z,3.40
2022-08-31T16:08:10.280Z,3.70
2022-08-31T16:10:43.476Z,3.70
2022-08-31T16:13:12.020Z,3.87
2022-08-31T16:15:40.253Z,3.87
2022-08-31T16:18:07.982Z,3.50
2022-08-31T16:20:36.086Z,3.87
2022-08-31T16:23:03.625Z,3.63
2022-08-31T16:25:47.719Z,3.47
2022-08-31T16:28:19.215Z,3.57
2022-08-31T16:30:47.277Z,3.50
2022-08-31T16:33:14.793Z,3.60
2022-08-31T16:35:44.588Z,3.60
2022-08-31T16:38:12.813Z,3.60
2022-08-31T16:40:41.633Z,3.30
2022-08-31T16:43:09.870Z,3.23
2022-08-31T16:45:41.570Z,3.80
2022-08-31T16:48:29.766Z,3.60
2022-08-31T16:51:01.907Z,3.80
2022-08-31T16:53:30.140Z,3.50
2022-08-31T16:55:59.879Z,3.60
2022-08-31T16:58:50.748Z,3.93
2022-08-31T17:01:26.980Z,4.00
2022-08-31T17:06:46.562Z,3.83
2022-08-31T17:09:19.885Z,3.30
2022-08-31T17:11:57.284Z,3.77
2022-08-31T17:14:37.471Z,4.60
2022-08-31T17:17:06.865Z,4.47
2022-08-31T17:19:35.979Z,4.10
2022-08-31T17:22:06.278Z,4.37
2022-08-31T17:24:38.633Z,4.80
2022-08-31T17:27:09.465Z,4.70
2022-08-31T17:29:43.734Z,4.30
2022-08-31T17:32:15.395Z,4.40
2022-08-31T17:34:51.559Z,4.00
2022-08-31T17:37:27.735Z,4.20
2022-08-31T17:40:09.850Z,5.03
2022-08-31T17:42:37.721Z,4.17
2022-08-31T17:45:06.583Z,3.60
2022-08-31T17:47:35.809Z,4.10
2022-08-31T17:50:04.148Z,4.43
2022-08-31T17:52:31.626Z,4.40
2022-08-31T17:55:01.705Z,4.37
2022-08-31T17:57:29.538Z,4.10
2022-08-31T17:59:56.954Z,4.27
2022-08-31T18:02:32.367Z,4.97
2022-08-31T18:05:00.887Z,4.47
2022-08-31T18:07:28.994Z,4.50
2022-08-31T18:09:57.027Z,4.80
2022-08-31T18:12:25.687Z,4.57
2022-08-31T18:14:54.074Z,4.70
2022-08-31T18:17:22.342Z,4.87
2022-08-31T18:19:49.852Z,4.77
2022-08-31T18:22:18.162Z,4.53
2022-08-31T18:24:45.775Z,4.93
2022-08-31T18:27:15.172Z,4.70
2022-08-31T18:29:44.544Z,4.30
2022-08-31T18:32:12.738Z,4.40
2022-08-31T18:34:46.178Z,4.60
2022-08-31T18:37:16.095Z,4.37
2022-08-31T18:40:08.135Z,3.83
2022-08-31T18:42:56.964Z,4.43
2022-08-31T18:45:25.953Z,4.50
2022-08-31T18:48:23.696Z,4.57
2022-08-31T18:50:44.108Z,4.20
2022-08-31T18:53:15.380Z,4.30
2022-08-31T18:55:44.441Z,4.10
2022-08-31T18:58:12.583Z,3.77
2022-08-31T19:00:40.503Z,4.43
2022-08-31T19:03:08.217Z,3.83
2022-08-31T19:05:39.170Z,4.30
2022-08-31T19:08:06.842Z,4.17
2022-08-31T19:10:34.725Z,3.77
2022-08-31T19:13:05.410Z,3.67
2022-08-31T19:15:39.801Z,3.60
2022-08-31T19:18:08.883Z,3.70
2022-08-31T19:20:36.533Z,3.83
2022-08-31T19:23:04.400Z,3.80
2022-08-31T19:25:32.018Z,3.40
2022-08-31T19:28:01.620Z,3.83
2022-08-31T19:30:48.626Z,3.43
2022-08-31T19:33:16.465Z,4.03
2022-08-31T19:35:45.095Z,3.80
2022-08-31T19:38:14.177Z,3.60
2022-08-31T19:40:42.082Z,3.57
2022-08-31T19:46:09.934Z,3.53
2022-08-31T19:48:44.355Z,3.37
2022-08-31T19:51:14.367Z,3.00
2022-08-31T19:53:45.739Z,3.27
2022-08-31T19:56:18.124Z,3.20
2022-08-31T19:58:48.237Z,3.33
2022-08-31T20:01:18.242Z,3.10
2022-08-31T20:03:47.815Z,3.33
2022-08-31T20:06:17.255Z,2.97
2022-08-31T20:08:45.291Z,3.30
2022-08-31T20:11:18.112Z,3.23
2022-08-31T20:13:49.735Z,2.87
2022-08-31T20:16:18.430Z,2.97
2022-08-31T20:18:46.891Z,3.13
2022-08-31T20:21:23.334Z,3.30
2022-08-31T20:23:56.781Z,2.60
2022-08-31T20:26:32.967Z,2.90
2022-08-31T20:29:04.241Z,2.77
2022-08-31T20:31:33.543Z,2.67
2022-08-31T20:34:00.897Z,2.80
2022-08-31T20:36:30.728Z,2.80
2022-08-31T20:39:08.237Z,2.77
2022-08-31T20:41:39.666Z,2.70
2022-08-31T20:44:15.515Z,2.87
2022-08-31T20:47:02.882Z,2.60
2022-08-31T20:49:33.485Z,2.53
2022-08-31T20:52:02.254Z,2.70
2022-08-31T20:54:31.159Z,3.13
2022-08-31T20:57:00.653Z,2.17
2022-08-31T20:59:29.045Z,2.83
2022-08-31T21:01:59.404Z,2.57
2022-08-31T21:04:28.957Z,2.50
2022-08-31T21:06:57.877Z,2.87
2022-08-31T21:09:26.705Z,2.63
2022-08-31T21:11:55.960Z,2.57
2022-08-31T21:14:27.629Z,2.27
2022-08-31T21:16:56.190Z,2.30
2022-08-31T21:19:24.916Z,2.80
2022-08-31T21:21:56.211Z,2.53
2022-08-31T21:24:23.559Z,2.23
2022-08-31T21:26:57.603Z,2.57
2022-08-31T21:29:25.850Z,2.53
2022-08-31T21:32:01.181Z,2.33
2022-08-31T21:34:31.057Z,2.17
2022-08-31T21:36:58.537Z,2.17
2022-08-31T21:39:26.942Z,2.20
2022-08-31T21:41:55.931Z,2.27
2022-08-31T21:44:24.323Z,2.50
2022-08-31T21:46:52.097Z,2.37
2022-08-31T21:49:19.558Z,2.47
2022-08-31T21:51:55.837Z,2.00
2022-08-31T21:54:27.255Z,1.97
2022-08-31T21:56:57.487Z,2.10
2022-08-31T21:59:29.948Z,2.07
2022-08-31T22:02:00.359Z,2.10
2022-08-31T22:04:29.490Z,1.90
2022-08-31T22:06:57.647Z,1.93
2022-08-31T22:09:26.408Z,2.33
2022-08-31T22:11:56.518Z,2.00
2022-08-31T22:14:29.267Z,2.73
2022-08-31T22:16:58.995Z,2.13
2022-08-31T22:19:28.434Z,2.27
2022-08-31T22:22:01.044Z,2.00
2022-08-31T22:24:31.520Z,2.10
2022-08-31T22:27:02.370Z,2.37
2022-08-31T22:29:32.590Z,2.13
2022-08-31T22:32:03.741Z,1.90
2022-08-31T22:34:31.453Z,2.07
2022-08-31T22:36:58.830Z,1.77
2022-08-31T22:39:29.270Z,2.00
2022-08-31T22:41:58.982Z,1.90
2022-08-31T22:44:28.994Z,2.10
2022-08-31T22:46:56.997Z,2.00
2022-08-31T22:49:25.887Z,2.00
2022-08-31T22:51:54.308Z,2.00
2022-08-31T22:54:23.999Z,1.60
2022-08-31T22:56:51.561Z,1.70
2022-08-31T22:59:26.106Z,1.93
2022-08-31T23:01:56.165Z,1.73
2022-08-31T23:04:27.534Z,2.13
2022-08-31T23:06:59.082Z,1.53
2022-08-31T23:09:30.559Z,1.80
2022-08-31T23:12:00.118Z,1.90
2022-08-31T23:14:28.094Z,1.60
2022-08-31T23:16:57.743Z,2.10
2022-08-31T23:19:30.561Z,1.57
2022-08-31T23:21:58.942Z,1.60
2022-08-31T23:24:31.334Z,1.70
2022-08-31T23:27:04.430Z,1.70
2022-08-31T23:29:36.052Z,1.20
2022-08-31T23:32:04.397Z,1.57
2022-08-31T23:34:34.565Z,1.90
2022-08-31T23:37:07.819Z,1.60
2022-08-31T23:39:43.323Z,1.90
2022-08-31T23:42:13.042Z,1.80
2022-08-31T23:44:43.154Z,1.80
2022-08-31T23:47:17.752Z,1.77
2022-08-31T23:49:45.874Z,1.93
2022-08-31T23:52:18.414Z,1.83
2022-08-31T23:54:47.841Z,1.60
2022-08-31T23:57:32.805Z,1.90
